sensor_id;sensor_type;location;lat;lon;timestamp;pressure;altitude;pressure_sealevel;temperature;humidity
61963;BME280;47927;42.646;23.096;2023-05-29T00:00:13;91914.75;;;15.14;62.11
61963;BME280;47927;42.646;23.096;2023-05-29T00:03:00;91918.88;;;15.15;62.46
61963;BME280;47927;42.646;23.096;2023-05-29T00:05:26;91922.34;;;15.04;62.64
61963;BME280;47927;42.646;23.096;2023-05-29T00:07:52;91915.88;;;14.82;63.77
61963;BME280;47927;42.646;23.096;2023-05-29T00:10:36;91926.03;;;14.76;63.90
61963;BME280;47927;42.646;23.096;2023-05-29T00:13:03;91924.97;;;15.08;63.17
61963;BME280;47927;42.646;23.096;2023-05-29T00:15:28;91926.53;;;14.19;65.33
61963;BME280;47927;42.646;23.096;2023-05-29T00:17:55;91925.34;;;14.72;63.77
61963;BME280;47927;42.646;23.096;2023-05-29T00:20:21;91934.03;;;14.62;64.06
61963;BME280;47927;42.646;23.096;2023-05-29T00:22:46;91925.53;;;14.47;64.72
61963;BME280;47927;42.646;23.096;2023-05-29T00:25:12;91922.91;;;14.47;64.78
61963;BME280;47927;42.646;23.096;2023-05-29T00:27:37;91923.56;;;14.62;64.35
61963;BME280;47927;42.646;23.096;2023-05-29T00:30:03;91925.84;;;14.56;64.26
61963;BME280;47927;42.646;23.096;2023-05-29T00:32:29;91930.97;;;14.71;63.60
61963;BME280;47927;42.646;23.096;2023-05-29T00:34:55;91928.03;;;14.65;64.15
61963;BME280;47927;42.646;23.096;2023-05-29T00:37:21;91916.91;;;14.50;64.72
61963;BME280;47927;42.646;23.096;2023-05-29T00:39:48;91922.53;;;14.52;64.51
61963;BME280;47927;42.646;23.096;2023-05-29T00:42:14;91928.44;;;14.64;64.36
61963;BME280;47927;42.646;23.096;2023-05-29T00:44:39;91930.13;;;14.36;65.56
61963;BME280;47927;42.646;23.096;2023-05-29T00:47:05;91925.63;;;14.78;63.95
61963;BME280;47927;42.646;23.096;2023-05-29T00:49:31;91913.78;;;14.66;64.21
61963;BME280;47927;42.646;23.096;2023-05-29T00:51:58;91918.75;;;14.08;66.23
61963;BME280;47927;42.646;23.096;2023-05-29T00:54:26;91914.03;;;14.38;66.13
61963;BME280;47927;42.646;23.096;2023-05-29T00:56:54;91920.59;;;14.11;66.94
61963;BME280;47927;42.646;23.096;2023-05-29T00:59:20;91914.22;;;14.16;67.07
61963;BME280;47927;42.646;23.096;2023-05-29T01:01:51;91906.94;;;14.34;66.13
61963;BME280;47927;42.646;23.096;2023-05-29T01:04:16;91916.28;;;14.77;64.65
61963;BME280;47927;42.646;23.096;2023-05-29T01:06:43;91907.09;;;14.96;63.80
61963;BME280;47927;42.646;23.096;2023-05-29T01:09:09;91906.41;;;14.50;65.07
61963;BME280;47927;42.646;23.096;2023-05-29T01:11:45;91903.78;;;14.50;65.23
61963;BME280;47927;42.646;23.096;2023-05-29T01:14:21;91899.25;;;14.17;66.58
61963;BME280;47927;42.646;23.096;2023-05-29T01:17:46;91906.50;;;14.43;65.46
61963;BME280;47927;42.646;23.096;2023-05-29T01:20:08;91904.31;;;14.34;66.01
61963;BME280;47927;42.646;23.096;2023-05-29T01:28:25;91905.72;;;14.84;64.44
61963;BME280;47927;42.646;23.096;2023-05-29T01:30:54;91905.44;;;14.75;64.17
61963;BME280;47927;42.646;23.096;2023-05-29T01:33:21;91915.28;;;14.22;66.62
61963;BME280;47927;42.646;23.096;2023-05-29T01:35:50;91908.75;;;13.96;67.06
61963;BME280;47927;42.646;23.096;2023-05-29T01:38:15;91915.59;;;13.79;67.81
61963;BME280;47927;42.646;23.096;2023-05-29T01:40:41;91906.84;;;14.00;68.00
61963;BME280;47927;42.646;23.096;2023-05-29T01:43:07;91903.63;;;14.27;66.19
61963;BME280;47927;42.646;23.096;2023-05-29T01:45:33;91916.25;;;14.43;65.68
61963;BME280;47927;42.646;23.096;2023-05-29T01:47:58;91911.25;;;14.10;67.25
61963;BME280;47927;42.646;23.096;2023-05-29T01:50:25;91911.91;;;14.22;66.58
61963;BME280;47927;42.646;23.096;2023-05-29T01:52:51;91907.94;;;13.51;69.75
61963;BME280;47927;42.646;23.096;2023-05-29T01:55:17;91906.38;;;13.60;70.08
61963;BME280;47927;42.646;23.096;2023-05-29T01:57:43;91904.63;;;13.99;68.82
61963;BME280;47927;42.646;23.096;2023-05-29T02:00:09;91897.44;;;14.06;67.96
61963;BME280;47927;42.646;23.096;2023-05-29T02:02:41;91907.31;;;13.88;68.88
61963;BME280;47927;42.646;23.096;2023-05-29T02:05:08;91898.81;;;14.22;67.67
61963;BME280;47927;42.646;23.096;2023-05-29T02:07:35;91907.97;;;14.44;67.09
61963;BME280;47927;42.646;23.096;2023-05-29T02:10:20;91909.56;;;13.89;69.29
61963;BME280;47927;42.646;23.096;2023-05-29T02:12:46;91902.94;;;13.74;69.95
61963;BME280;47927;42.646;23.096;2023-05-29T02:15:11;91904.13;;;13.59;70.86
61963;BME280;47927;42.646;23.096;2023-05-29T02:17:37;91902.03;;;13.95;69.50
61963;BME280;47927;42.646;23.096;2023-05-29T02:20:02;91897.81;;;14.50;66.95
61963;BME280;47927;42.646;23.096;2023-05-29T02:22:32;91898.91;;;14.56;66.59
61963;BME280;47927;42.646;23.096;2023-05-29T02:24:58;91904.25;;;14.42;67.16
61963;BME280;47927;42.646;23.096;2023-05-29T02:27:25;91913.75;;;14.28;67.42
61963;BME280;47927;42.646;23.096;2023-05-29T02:29:50;91913.53;;;14.53;66.52
61963;BME280;47927;42.646;23.096;2023-05-29T02:32:34;91908.56;;;14.63;65.90
61963;BME280;47927;42.646;23.096;2023-05-29T02:35:00;91908.84;;;14.75;65.82
61963;BME280;47927;42.646;23.096;2023-05-29T02:37:25;91909.81;;;14.89;65.50
61963;BME280;47927;42.646;23.096;2023-05-29T02:39:51;91921.03;;;15.20;63.73
61963;BME280;47927;42.646;23.096;2023-05-29T02:42:17;91912.00;;;15.24;63.24
61963;BME280;47927;42.646;23.096;2023-05-29T02:44:43;91911.63;;;15.26;62.82
61963;BME280;47927;42.646;23.096;2023-05-29T02:47:08;91915.63;;;15.03;63.67
61963;BME280;47927;42.646;23.096;2023-05-29T02:49:34;91905.44;;;14.78;64.30
61963;BME280;47927;42.646;23.096;2023-05-29T02:51:59;91918.31;;;15.00;64.03
61963;BME280;47927;42.646;23.096;2023-05-29T02:54:25;91917.56;;;14.99;63.78
61963;BME280;47927;42.646;23.096;2023-05-29T02:56:52;91919.97;;;15.17;63.09
61963;BME280;47927;42.646;23.096;2023-05-29T02:59:17;91923.53;;;15.00;63.46
61963;BME280;47927;42.646;23.096;2023-05-29T03:01:43;91911.75;;;15.15;63.06
61963;BME280;47927;42.646;23.096;2023-05-29T03:04:12;91914.00;;;15.13;63.80
61963;BME280;47927;42.646;23.096;2023-05-29T03:06:37;91925.66;;;15.12;63.61
61963;BME280;47927;42.646;23.096;2023-05-29T03:09:05;91901.31;;;15.12;63.07
61963;BME280;47927;42.646;23.096;2023-05-29T03:11:32;91912.69;;;15.32;63.11
61963;BME280;47927;42.646;23.096;2023-05-29T03:13:58;91918.66;;;15.33;63.37
61963;BME280;47927;42.646;23.096;2023-05-29T03:16:23;91918.63;;;14.68;65.72
61963;BME280;47927;42.646;23.096;2023-05-29T03:18:49;91922.63;;;15.14;64.25
61963;BME280;47927;42.646;23.096;2023-05-29T03:21:18;91921.34;;;15.25;63.89
61963;BME280;47927;42.646;23.096;2023-05-29T03:23:43;91913.38;;;15.06;64.00
61963;BME280;47927;42.646;23.096;2023-05-29T03:26:09;91915.00;;;14.92;65.24
61963;BME280;47927;42.646;23.096;2023-05-29T03:28:37;91921.50;;;14.39;67.41
61963;BME280;47927;42.646;23.096;2023-05-29T03:31:06;91902.44;;;14.35;67.25
61963;BME280;47927;42.646;23.096;2023-05-29T03:33:33;91926.59;;;14.12;68.85
61963;BME280;47927;42.646;23.096;2023-05-29T03:36:17;91921.06;;;13.99;69.48
61963;BME280;47927;42.646;23.096;2023-05-29T03:38:43;91926.00;;;14.39;67.90
61963;BME280;47927;42.646;23.096;2023-05-29T03:41:09;91944.09;;;15.05;66.15
61963;BME280;47927;42.646;23.096;2023-05-29T03:43:36;91943.66;;;14.76;67.15
61963;BME280;47927;42.646;23.096;2023-05-29T03:46:01;91950.38;;;14.77;66.70
61963;BME280;47927;42.646;23.096;2023-05-29T03:48:29;91942.44;;;14.39;68.13
61963;BME280;47927;42.646;23.096;2023-05-29T03:50:55;91952.50;;;14.48;67.55
61963;BME280;47927;42.646;23.096;2023-05-29T03:53:27;91947.03;;;14.31;68.53
61963;BME280;47927;42.646;23.096;2023-05-29T03:55:53;91955.16;;;14.44;68.25
61963;BME280;47927;42.646;23.096;2023-05-29T03:58:18;91953.03;;;15.11;65.54
61963;BME280;47927;42.646;23.096;2023-05-29T04:00:44;91951.41;;;15.52;63.91
61963;BME280;47927;42.646;23.096;2023-05-29T04:03:11;91954.56;;;15.39;63.77
61963;BME280;47927;42.646;23.096;2023-05-29T04:05:36;91968.25;;;14.89;65.44
61963;BME280;47927;42.646;23.096;2023-05-29T04:08:02;91967.22;;;15.14;64.93
61963;BME280;47927;42.646;23.096;2023-05-29T04:10:29;91965.84;;;15.36;64.41
61963;BME280;47927;42.646;23.096;2023-05-29T04:13:00;91958.13;;;15.56;62.90
61963;BME280;47927;42.646;23.096;2023-05-29T04:15:27;91965.53;;;16.19;61.67
61963;BME280;47927;42.646;23.096;2023-05-29T04:17:53;91964.22;;;16.31;61.23
61963;BME280;47927;42.646;23.096;2023-05-29T04:20:19;91964.34;;;17.14;59.05
61963;BME280;47927;42.646;23.096;2023-05-29T04:22:44;91972.50;;;17.00;59.21
61963;BME280;47927;42.646;23.096;2023-05-29T04:25:10;91979.94;;;18.66;54.89
61963;BME280;47927;42.646;23.096;2023-05-29T04:27:36;91968.94;;;20.48;49.88
61963;BME280;47927;42.646;23.096;2023-05-29T04:30:05;91966.47;;;22.61;43.98
61963;BME280;47927;42.646;23.096;2023-05-29T04:32:35;91972.81;;;24.35;40.03
61963;BME280;47927;42.646;23.096;2023-05-29T04:35:02;91977.06;;;24.75;38.26
61963;BME280;47927;42.646;23.096;2023-05-29T04:37:29;91967.13;;;23.30;41.01
61963;BME280;47927;42.646;23.096;2023-05-29T04:39:57;91983.03;;;22.93;41.85
61963;BME280;47927;42.646;23.096;2023-05-29T04:42:25;91985.13;;;23.81;40.22
61963;BME280;47927;42.646;23.096;2023-05-29T04:44:52;91989.50;;;22.24;43.74
61963;BME280;47927;42.646;23.096;2023-05-29T04:47:19;91975.22;;;20.29;47.48
61963;BME280;47927;42.646;23.096;2023-05-29T04:49:45;91993.00;;;20.54;47.79
61963;BME280;47927;42.646;23.096;2023-05-29T04:52:15;91990.13;;;20.10;48.49
61963;BME280;47927;42.646;23.096;2023-05-29T04:54:40;91990.75;;;19.47;50.20
61963;BME280;47927;42.646;23.096;2023-05-29T04:57:07;91990.03;;;20.65;47.60
61963;BME280;47927;42.646;23.096;2023-05-29T04:59:34;92002.84;;;21.58;45.67
61963;BME280;47927;42.646;23.096;2023-05-29T05:02:00;92003.78;;;21.29;45.19
61963;BME280;47927;42.646;23.096;2023-05-29T05:04:26;91998.25;;;20.80;46.56
61963;BME280;47927;42.646;23.096;2023-05-29T05:06:52;92012.78;;;21.45;45.10
61963;BME280;47927;42.646;23.096;2023-05-29T05:09:17;92012.59;;;22.55;43.06
61963;BME280;47927;42.646;23.096;2023-05-29T05:11:43;92022.22;;;22.52;42.92
61963;BME280;47927;42.646;23.096;2023-05-29T05:14:09;92008.75;;;22.96;42.67
61963;BME280;47927;42.646;23.096;2023-05-29T05:16:35;92021.03;;;22.62;42.65
61963;BME280;47927;42.646;23.096;2023-05-29T05:19:02;92025.66;;;20.86;45.84
61963;BME280;47927;42.646;23.096;2023-05-29T05:21:31;92025.63;;;19.84;49.05
61963;BME280;47927;42.646;23.096;2023-05-29T05:23:59;92027.38;;;20.80;47.41
61963;BME280;47927;42.646;23.096;2023-05-29T05:26:26;92027.47;;;19.57;49.61
61963;BME280;47927;42.646;23.096;2023-05-29T05:28:52;92031.03;;;19.80;49.69
61963;BME280;47927;42.646;23.096;2023-05-29T05:31:17;92044.06;;;19.87;48.97
61963;BME280;47927;42.646;23.096;2023-05-29T05:33:43;92034.63;;;17.77;54.72
61963;BME280;47927;42.646;23.096;2023-05-29T05:36:08;92038.19;;;19.21;52.17
61963;BME280;47927;42.646;23.096;2023-05-29T05:38:35;92029.25;;;19.02;51.59
61963;BME280;47927;42.646;23.096;2023-05-29T05:41:01;92024.47;;;18.97;52.41
61963;BME280;47927;42.646;23.096;2023-05-29T05:43:30;92028.25;;;18.31;53.46
61963;BME280;47927;42.646;23.096;2023-05-29T05:46:08;92017.56;;;18.87;52.74
61963;BME280;47927;42.646;23.096;2023-05-29T05:48:35;92026.88;;;19.37;51.17
61963;BME280;47927;42.646;23.096;2023-05-29T05:51:01;92036.97;;;19.09;51.76
61963;BME280;47927;42.646;23.096;2023-05-29T05:53:27;92021.84;;;19.55;51.03
61963;BME280;47927;42.646;23.096;2023-05-29T05:55:52;92018.69;;;20.28;49.29
61963;BME280;47927;42.646;23.096;2023-05-29T05:58:19;92024.72;;;20.16;48.42
61963;BME280;47927;42.646;23.096;2023-05-29T06:00:45;92038.97;;;19.22;50.36
61963;BME280;47927;42.646;23.096;2023-05-29T06:03:10;92021.97;;;20.19;49.06
61963;BME280;47927;42.646;23.096;2023-05-29T06:05:56;92024.94;;;20.47;47.91
61963;BME280;47927;42.646;23.096;2023-05-29T06:08:22;92028.56;;;20.66;46.60
61963;BME280;47927;42.646;23.096;2023-05-29T06:10:48;92022.06;;;20.67;46.60
61963;BME280;47927;42.646;23.096;2023-05-29T06:13:15;92029.28;;;20.41;47.63
61963;BME280;47927;42.646;23.096;2023-05-29T06:15:47;92037.28;;;21.01;47.44
61963;BME280;47927;42.646;23.096;2023-05-29T06:18:13;92045.91;;;21.27;46.07
61963;BME280;47927;42.646;23.096;2023-05-29T06:20:38;92039.66;;;21.21;45.60
61963;BME280;47927;42.646;23.096;2023-05-29T06:23:04;92044.41;;;21.26;46.39
61963;BME280;47927;42.646;23.096;2023-05-29T06:25:31;92040.59;;;22.15;44.66
61963;BME280;47927;42.646;23.096;2023-05-29T06:28:00;92032.69;;;22.24;43.55
61963;BME280;47927;42.646;23.096;2023-05-29T06:30:26;92047.97;;;21.67;44.92
61963;BME280;47927;42.646;23.096;2023-05-29T06:32:52;92049.50;;;20.86;46.60
61963;BME280;47927;42.646;23.096;2023-05-29T06:35:22;92044.09;;;20.64;48.20
61963;BME280;47927;42.646;23.096;2023-05-29T06:37:47;92044.53;;;20.62;47.82
61963;BME280;47927;42.646;23.096;2023-05-29T06:40:13;92046.41;;;20.87;47.58
61963;BME280;47927;42.646;23.096;2023-05-29T06:42:57;92044.94;;;20.61;48.20
61963;BME280;47927;42.646;23.096;2023-05-29T06:45:39;92052.34;;;20.79;48.22
61963;BME280;47927;42.646;23.096;2023-05-29T06:48:06;92038.53;;;20.97;47.15
61963;BME280;47927;42.646;23.096;2023-05-29T06:50:32;92046.28;;;21.04;47.02
61963;BME280;47927;42.646;23.096;2023-05-29T06:53:10;92046.69;;;21.02;48.21
61963;BME280;47927;42.646;23.096;2023-05-29T06:55:46;92045.69;;;20.36;48.76
61963;BME280;47927;42.646;23.096;2023-05-29T06:58:12;92049.38;;;20.13;48.89
61963;BME280;47927;42.646;23.096;2023-05-29T07:00:38;92048.63;;;20.76;48.15
61963;BME280;47927;42.646;23.096;2023-05-29T07:03:19;92051.34;;;21.11;47.22
61963;BME280;47927;42.646;23.096;2023-05-29T07:05:45;92068.25;;;22.58;43.88
61963;BME280;47927;42.646;23.096;2023-05-29T07:08:10;92060.72;;;22.66;43.17
61963;BME280;47927;42.646;23.096;2023-05-29T07:10:36;92064.44;;;22.28;44.17
61963;BME280;47927;42.646;23.096;2023-05-29T07:13:01;92061.94;;;22.12;44.44
61963;BME280;47927;42.646;23.096;2023-05-29T07:15:27;92064.22;;;21.69;44.42
61963;BME280;47927;42.646;23.096;2023-05-29T07:17:52;92060.44;;;22.01;44.99
61963;BME280;47927;42.646;23.096;2023-05-29T07:20:23;92056.97;;;22.85;43.07
61963;BME280;47927;42.646;23.096;2023-05-29T07:22:49;92044.81;;;23.34;41.91
61963;BME280;47927;42.646;23.096;2023-05-29T07:25:14;92071.22;;;23.10;41.49
61963;BME280;47927;42.646;23.096;2023-05-29T07:27:40;92059.34;;;22.92;41.52
61963;BME280;47927;42.646;23.096;2023-05-29T07:30:07;92076.09;;;22.40;41.81
61963;BME280;47927;42.646;23.096;2023-05-29T07:32:34;92047.91;;;22.64;42.10
61963;BME280;47927;42.646;23.096;2023-05-29T07:34:59;92048.06;;;23.47;40.69
61963;BME280;47927;42.646;23.096;2023-05-29T07:37:25;92054.84;;;23.94;39.63
61963;BME280;47927;42.646;23.096;2023-05-29T07:39:52;92075.69;;;25.86;35.49
61963;BME280;47927;42.646;23.096;2023-05-29T07:42:43;92062.66;;;25.88;35.98
61963;BME280;47927;42.646;23.096;2023-05-29T07:45:08;92041.78;;;28.35;31.81
61963;BME280;47927;42.646;23.096;2023-05-29T07:47:34;92045.00;;;29.74;29.96
61963;BME280;47927;42.646;23.096;2023-05-29T07:50:01;92049.25;;;30.87;27.52
61963;BME280;47927;42.646;23.096;2023-05-29T07:52:28;92050.97;;;32.54;25.35
61963;BME280;47927;42.646;23.096;2023-05-29T07:54:54;92046.31;;;33.58;25.01
61963;BME280;47927;42.646;23.096;2023-05-29T07:57:21;92058.22;;;35.03;23.82
61963;BME280;47927;42.646;23.096;2023-05-29T07:59:47;92065.25;;;33.77;23.04
61963;BME280;47927;42.646;23.096;2023-05-29T08:02:15;92059.19;;;32.98;24.05
61963;BME280;47927;42.646;23.096;2023-05-29T08:05:08;92071.59;;;32.16;25.22
61963;BME280;47927;42.646;23.096;2023-05-29T08:07:36;92067.94;;;32.13;25.82
61963;BME280;47927;42.646;23.096;2023-05-29T08:10:02;92073.19;;;32.30;25.63
61963;BME280;47927;42.646;23.096;2023-05-29T08:12:28;92058.47;;;33.22;23.80
61963;BME280;47927;42.646;23.096;2023-05-29T08:14:56;92060.50;;;34.54;22.59
61963;BME280;47927;42.646;23.096;2023-05-29T08:17:22;92054.56;;;34.87;22.75
61963;BME280;47927;42.646;23.096;2023-05-29T08:19:47;92058.34;;;35.77;21.04
61963;BME280;47927;42.646;23.096;2023-05-29T08:22:14;92045.47;;;36.39;19.89
61963;BME280;47927;42.646;23.096;2023-05-29T08:24:40;92044.53;;;36.36;20.14
61963;BME280;47927;42.646;23.096;2023-05-29T08:27:06;92052.72;;;35.89;19.78
61963;BME280;47927;42.646;23.096;2023-05-29T08:29:31;92052.38;;;36.05;19.60
61963;BME280;47927;42.646;23.096;2023-05-29T08:31:57;92055.19;;;36.00;19.90
61963;BME280;47927;42.646;23.096;2023-05-29T08:34:22;92059.63;;;35.76;20.39
61963;BME280;47927;42.646;23.096;2023-05-29T08:36:48;92063.75;;;35.91;20.47
61963;BME280;47927;42.646;23.096;2023-05-29T08:39:13;92061.41;;;36.42;20.42
61963;BME280;47927;42.646;23.096;2023-05-29T08:41:55;92064.47;;;34.85;21.41
61963;BME280;47927;42.646;23.096;2023-05-29T08:44:25;92068.97;;;33.74;23.00
61963;BME280;47927;42.646;23.096;2023-05-29T08:46:55;92073.25;;;32.60;24.53
61963;BME280;47927;42.646;23.096;2023-05-29T08:49:22;92068.09;;;30.87;26.16
61963;BME280;47927;42.646;23.096;2023-05-29T08:51:57;92054.34;;;29.90;28.42
61963;BME280;47927;42.646;23.096;2023-05-29T08:54:25;92053.56;;;31.41;26.55
61963;BME280;47927;42.646;23.096;2023-05-29T08:56:51;92053.75;;;32.43;26.23
61963;BME280;47927;42.646;23.096;2023-05-29T08:59:17;92055.28;;;32.99;24.15
61963;BME280;47927;42.646;23.096;2023-05-29T09:01:43;92059.72;;;31.19;25.37
61963;BME280;47927;42.646;23.096;2023-05-29T09:04:09;92064.19;;;30.55;25.97
61963;BME280;47927;42.646;23.096;2023-05-29T09:06:34;92062.16;;;28.27;30.02
61963;BME280;47927;42.646;23.096;2023-05-29T09:09:00;92034.19;;;28.97;30.49
61963;BME280;47927;42.646;23.096;2023-05-29T09:11:25;92036.78;;;28.86;29.00
61963;BME280;47927;42.646;23.096;2023-05-29T09:13:52;92041.44;;;29.34;29.22
61963;BME280;47927;42.646;23.096;2023-05-29T09:16:17;92038.59;;;29.55;29.15
61963;BME280;47927;42.646;23.096;2023-05-29T09:18:43;92034.38;;;30.47;27.36
61963;BME280;47927;42.646;23.096;2023-05-29T09:21:26;92043.59;;;31.08;26.15
61963;BME280;47927;42.646;23.096;2023-05-29T09:23:54;92041.16;;;31.10;25.88
61963;BME280;47927;42.646;23.096;2023-05-29T09:26:21;92048.44;;;31.38;25.90
61963;BME280;47927;42.646;23.096;2023-05-29T09:28:48;92035.84;;;29.38;28.80
61963;BME280;47927;42.646;23.096;2023-05-29T09:31:15;92043.06;;;29.74;28.27
61963;BME280;47927;42.646;23.096;2023-05-29T09:33:49;92044.16;;;27.76;31.05
61963;BME280;47927;42.646;23.096;2023-05-29T09:36:22;92033.84;;;27.89;30.64
61963;BME280;47927;42.646;23.096;2023-05-29T09:38:48;92024.41;;;28.25;29.98
61963;BME280;47927;42.646;23.096;2023-05-29T09:41:20;92040.00;;;27.54;30.07
61963;BME280;47927;42.646;23.096;2023-05-29T09:43:48;92013.41;;;27.04;31.19
61963;BME280;47927;42.646;23.096;2023-05-29T09:46:17;92026.94;;;27.00;30.58
61963;BME280;47927;42.646;23.096;2023-05-29T09:48:44;92017.31;;;27.70;31.24
61963;BME280;47927;42.646;23.096;2023-05-29T09:51:23;91999.66;;;28.36;30.46
61963;BME280;47927;42.646;23.096;2023-05-29T09:53:50;92002.06;;;28.02;30.96
61963;BME280;47927;42.646;23.096;2023-05-29T09:56:16;92000.91;;;28.09;31.17
61963;BME280;47927;42.646;23.096;2023-05-29T09:58:43;91996.50;;;28.06;30.57
61963;BME280;47927;42.646;23.096;2023-05-29T10:01:13;92017.03;;;27.01;31.56
61963;BME280;47927;42.646;23.096;2023-05-29T10:03:41;92010.00;;;27.24;32.18
61963;BME280;47927;42.646;23.096;2023-05-29T10:06:10;92008.78;;;26.84;31.79
61963;BME280;47927;42.646;23.096;2023-05-29T10:08:37;91994.19;;;27.67;30.55
61963;BME280;47927;42.646;23.096;2023-05-29T10:11:07;92006.50;;;28.05;30.39
61963;BME280;47927;42.646;23.096;2023-05-29T10:13:42;92005.59;;;27.88;30.17
61963;BME280;47927;42.646;23.096;2023-05-29T10:16:14;92002.22;;;26.85;32.34
61963;BME280;47927;42.646;23.096;2023-05-29T10:18:44;91999.28;;;27.44;30.50
61963;BME280;47927;42.646;23.096;2023-05-29T10:21:12;91999.13;;;25.77;33.23
61963;BME280;47927;42.646;23.096;2023-05-29T10:23:38;91993.47;;;26.85;30.23
61963;BME280;47927;42.646;23.096;2023-05-29T10:26:26;91999.41;;;26.74;31.13
61963;BME280;47927;42.646;23.096;2023-05-29T10:29:48;91989.97;;;27.60;30.84
61963;BME280;47927;42.646;23.096;2023-05-29T10:32:21;91981.09;;;27.75;30.84
61963;BME280;47927;42.646;23.096;2023-05-29T10:35:31;91989.06;;;28.21;30.05
61963;BME280;47927;42.646;23.096;2023-05-29T10:38:10;91991.97;;;28.17;29.75
61963;BME280;47927;42.646;23.096;2023-05-29T10:40:36;91981.72;;;28.16;29.55
61963;BME280;47927;42.646;23.096;2023-05-29T10:43:01;91985.16;;;28.48;29.51
61963;BME280;47927;42.646;23.096;2023-05-29T10:50:42;91987.97;;;28.07;29.28
61963;BME280;47927;42.646;23.096;2023-05-29T10:53:09;91984.16;;;27.62;28.80
61963;BME280;47927;42.646;23.096;2023-05-29T10:55:38;91968.00;;;28.03;30.58
61963;BME280;47927;42.646;23.096;2023-05-29T10:58:33;91964.28;;;27.94;29.24
61963;BME280;47927;42.646;23.096;2023-05-29T11:00:59;91986.63;;;25.83;31.13
61963;BME280;47927;42.646;23.096;2023-05-29T11:03:34;91979.00;;;26.41;31.67
61963;BME280;47927;42.646;23.096;2023-05-29T11:06:07;91974.06;;;24.58;33.00
61963;BME280;47927;42.646;23.096;2023-05-29T11:08:43;91966.31;;;24.27;34.48
61963;BME280;47927;42.646;23.096;2023-05-29T11:11:31;91958.00;;;24.67;35.29
61963;BME280;47927;42.646;23.096;2023-05-29T11:14:05;91959.88;;;25.39;33.63
61963;BME280;47927;42.646;23.096;2023-05-29T11:18:59;91944.22;;;25.85;32.83
61963;BME280;47927;42.646;23.096;2023-05-29T11:24:01;91947.59;;;26.01;31.90
61963;BME280;47927;42.646;23.096;2023-05-29T11:26:32;91944.53;;;26.58;31.44
61963;BME280;47927;42.646;23.096;2023-05-29T11:29:03;91950.84;;;26.96;30.62
61963;BME280;47927;42.646;23.096;2023-05-29T11:31:32;91956.22;;;25.36;32.81
61963;BME280;47927;42.646;23.096;2023-05-29T11:34:02;91952.28;;;25.61;33.54
61963;BME280;47927;42.646;23.096;2023-05-29T11:36:33;91928.25;;;25.17;34.73
61963;BME280;47927;42.646;23.096;2023-05-29T11:38:59;91941.34;;;24.82;33.52
61963;BME280;47927;42.646;23.096;2023-05-29T11:41:26;91941.22;;;25.39;31.29
61963;BME280;47927;42.646;23.096;2023-05-29T11:44:02;91946.34;;;26.31;30.26
61963;BME280;47927;42.646;23.096;2023-05-29T11:46:29;91939.94;;;27.40;29.72
61963;BME280;47927;42.646;23.096;2023-05-29T11:48:58;91952.16;;;26.86;29.47
61963;BME280;47927;42.646;23.096;2023-05-29T11:51:24;91944.81;;;25.65;30.80
61963;BME280;47927;42.646;23.096;2023-05-29T11:53:50;91940.41;;;24.70;32.44
61963;BME280;47927;42.646;23.096;2023-05-29T11:56:19;91945.25;;;23.62;33.89
61963;BME280;47927;42.646;23.096;2023-05-29T11:58:44;91927.03;;;23.88;33.29
61963;BME280;47927;42.646;23.096;2023-05-29T12:01:10;91935.44;;;24.53;33.08
61963;BME280;47927;42.646;23.096;2023-05-29T12:03:40;91931.25;;;24.86;32.93
61963;BME280;47927;42.646;23.096;2023-05-29T12:06:35;91931.38;;;24.43;33.36
61963;BME280;47927;42.646;23.096;2023-05-29T12:09:03;91921.50;;;24.83;33.27
61963;BME280;47927;42.646;23.096;2023-05-29T12:11:29;91928.41;;;25.28;32.11
61963;BME280;47927;42.646;23.096;2023-05-29T12:13:57;91921.28;;;24.14;33.63
61963;BME280;47927;42.646;23.096;2023-05-29T12:16:22;91913.63;;;24.07;33.30
61963;BME280;47927;42.646;23.096;2023-05-29T12:18:49;91916.97;;;23.83;35.61
61963;BME280;47927;42.646;23.096;2023-05-29T12:21:14;91914.53;;;24.04;35.90
61963;BME280;47927;42.646;23.096;2023-05-29T12:23:40;91921.91;;;24.33;35.64
61963;BME280;47927;42.646;23.096;2023-05-29T12:26:05;91936.25;;;24.02;35.43
61963;BME280;47927;42.646;23.096;2023-05-29T12:28:31;91913.03;;;24.45;35.71
61963;BME280;47927;42.646;23.096;2023-05-29T12:30:59;91927.44;;;25.40;35.14
61963;BME280;47927;42.646;23.096;2023-05-29T12:33:29;91924.38;;;25.18;35.17
61963;BME280;47927;42.646;23.096;2023-05-29T12:36:08;91932.28;;;24.07;36.02
61963;BME280;47927;42.646;23.096;2023-05-29T12:38:49;91957.53;;;22.27;39.27
61963;BME280;47927;42.646;23.096;2023-05-29T12:41:25;91939.13;;;21.93;40.03
61963;BME280;47927;42.646;23.096;2023-05-29T12:43:58;91926.59;;;21.62;41.52
61963;BME280;47927;42.646;23.096;2023-05-29T12:46:27;91931.16;;;21.61;42.44
61963;BME280;47927;42.646;23.096;2023-05-29T12:48:53;91936.75;;;21.95;42.38
61963;BME280;47927;42.646;23.096;2023-05-29T12:51:26;91955.41;;;21.82;43.60
61963;BME280;47927;42.646;23.096;2023-05-29T12:53:52;91945.81;;;21.53;44.79
61963;BME280;47927;42.646;23.096;2023-05-29T12:56:22;91955.97;;;20.76;45.65
61963;BME280;47927;42.646;23.096;2023-05-29T12:59:08;91960.78;;;20.43;47.34
61963;BME280;47927;42.646;23.096;2023-05-29T13:01:34;91960.31;;;19.84;52.36
61963;BME280;47927;42.646;23.096;2023-05-29T13:04:00;91964.44;;;19.43;54.94
61963;BME280;47927;42.646;23.096;2023-05-29T13:06:25;91968.75;;;18.62;56.05
61963;BME280;47927;42.646;23.096;2023-05-29T13:08:51;91951.59;;;18.54;57.73
61963;BME280;47927;42.646;23.096;2023-05-29T13:11:17;91960.19;;;18.09;58.51
61963;BME280;47927;42.646;23.096;2023-05-29T13:13:43;91955.91;;;18.48;60.28